createdAt,value
2019-05-11T00:02:27.919Z,99.90
2019-05-11T00:05:17.665Z,99.90
2019-05-11T00:08:07.459Z,99.90
2019-05-11T00:10:57.275Z,99.90
2019-05-11T00:13:46.647Z,99.90
2019-05-11T00:16:36.295Z,99.90
2019-05-11T00:19:25.884Z,99.90
2019-05-11T00:22:16.163Z,99.90
2019-05-11T00:25:06.157Z,99.90
2019-05-11T00:27:56.107Z,99.90
2019-05-11T00:30:45.393Z,99.90
2019-05-11T00:33:34.767Z,99.90
2019-05-11T00:36:25.414Z,99.90
2019-05-11T00:39:15.286Z,99.90
2019-05-11T00:42:06.425Z,99.90
2019-05-11T00:44:56.485Z,99.90
2019-05-11T00:47:46.300Z,99.90
2019-05-11T00:50:39.123Z,99.90
2019-05-11T00:53:27.336Z,99.90
2019-05-11T00:56:17.817Z,99.90
2019-05-11T00:59:20.910Z,99.90
2019-05-11T01:01:59.415Z,99.90
2019-05-11T01:04:49.468Z,99.90
2019-05-11T01:07:39.067Z,99.90
2019-05-11T01:10:41.172Z,99.90
2019-05-11T01:13:19.870Z,99.90
2019-05-11T01:16:09.658Z,99.90
2019-05-11T01:18:59.323Z,99.90
2019-05-11T01:21:49.115Z,99.90
2019-05-11T01:24:38.714Z,99.90
2019-05-11T01:27:28.580Z,99.90
2019-05-11T01:30:19.171Z,99.90
2019-05-11T01:33:14.805Z,99.90
2019-05-11T01:36:04.063Z,99.90
2019-05-11T01:38:54.154Z,99.90
2019-05-11T01:41:44.133Z,99.90
2019-05-11T01:44:34.151Z,99.90
2019-05-11T01:47:23.232Z,99.90
2019-05-11T01:50:13.762Z,99.90
2019-05-11T01:53:04.114Z,99.90
2019-05-11T01:55:54.377Z,99.90
2019-05-11T01:58:45.075Z,99.90
2019-05-11T02:01:33.945Z,99.90
2019-05-11T02:04:24.335Z,99.90
2019-05-11T02:07:13.576Z,99.90
2019-05-11T02:10:03.954Z,99.90
2019-05-11T02:12:53.819Z,99.90
2019-05-11T02:15:42.595Z,99.90
2019-05-11T02:18:32.734Z,99.90
2019-05-11T02:21:22.241Z,99.90
2019-05-11T02:24:11.980Z,99.90
2019-05-11T02:27:01.361Z,99.90
2019-05-11T02:29:50.991Z,99.90
2019-05-11T02:32:40.980Z,99.90
2019-05-11T02:35:31.173Z,99.90
2019-05-11T02:38:20.213Z,99.90
2019-05-11T02:41:10.158Z,99.90
2019-05-11T02:43:59.906Z,99.90
2019-05-11T02:46:49.191Z,99.90
2019-05-11T02:49:39.076Z,99.90
2019-05-11T02:52:30.675Z,99.90
2019-05-11T02:55:20.472Z,99.90
2019-05-11T02:58:15.512Z,99.90
2019-05-11T03:01:05.294Z,99.90
2019-05-11T03:04:00.445Z,99.90
2019-05-11T03:06:49.783Z,99.90
2019-05-11T03:09:39.539Z,99.90
2019-05-11T03:12:28.899Z,99.90
2019-05-11T03:15:18.974Z,99.90
2019-05-11T03:18:08.625Z,99.90
2019-05-11T03:20:57.324Z,99.90
2019-05-11T03:23:46.735Z,99.90
2019-05-11T03:26:36.246Z,99.90
2019-05-11T03:29:25.459Z,99.90
2019-05-11T03:32:15.384Z,99.90
2019-05-11T03:35:05.489Z,99.90
2019-05-11T03:37:55.590Z,99.90
2019-05-11T03:40:44.949Z,99.90
2019-05-11T03:43:34.096Z,99.90
2019-05-11T03:46:24.138Z,99.90
2019-05-11T03:49:14.266Z,99.90
2019-05-11T03:52:04.101Z,99.90
2019-05-11T03:54:53.614Z,99.90
2019-05-11T03:57:43.611Z,99.90
2019-05-11T04:00:33.088Z,99.90
2019-05-11T04:03:25.058Z,99.90
2019-05-11T04:06:14.769Z,99.90
2019-05-11T04:09:06.199Z,99.90
2019-05-11T04:11:56.103Z,99.90
2019-05-11T04:14:45.649Z,99.90
2019-05-11T04:17:34.323Z,99.90
2019-05-11T04:20:24.713Z,99.90
2019-05-11T04:23:14.763Z,99.90
2019-05-11T04:26:18.660Z,99.90
2019-05-11T04:29:08.332Z,99.90
2019-05-11T04:31:57.994Z,99.90
2019-05-11T04:34:52.248Z,99.90
2019-05-11T04:37:41.786Z,99.90
2019-05-11T04:40:31.491Z,99.90
2019-05-11T04:43:20.892Z,99.90
2019-05-11T04:46:10.873Z,99.90
2019-05-11T04:49:01.156Z,99.90
2019-05-11T04:51:50.615Z,99.90
2019-05-11T04:54:40.133Z,99.90
2019-05-11T04:57:29.852Z,99.90
2019-05-11T05:00:19.686Z,99.90
2019-05-11T05:03:08.865Z,99.90
2019-05-11T05:06:20.862Z,99.90
2019-05-11T05:08:49.826Z,99.90
2019-05-11T05:11:39.536Z,99.90
2019-05-11T05:14:29.099Z,99.90
2019-05-11T05:17:19.563Z,99.90
2019-05-11T05:20:09.235Z,99.90
2019-05-11T05:22:59.143Z,99.90
2019-05-11T05:25:48.715Z,99.90
2019-05-11T05:28:38.904Z,99.90
2019-05-11T05:31:29.289Z,99.90
2019-05-11T05:34:20.418Z,99.90
2019-05-11T05:37:09.244Z,99.90
2019-05-11T05:39:59.778Z,99.90
2019-05-11T05:42:50.766Z,99.90
2019-05-11T05:45:40.054Z,99.90
2019-05-11T05:48:29.773Z,99.90
2019-05-11T05:51:19.919Z,99.90
2019-05-11T05:54:09.960Z,99.90
2019-05-11T05:56:59.182Z,99.90
2019-05-11T05:59:48.916Z,99.90
2019-05-11T06:02:38.070Z,99.90
2019-05-11T06:05:27.666Z,99.90
2019-05-11T06:08:17.543Z,99.90
2019-05-11T06:11:06.261Z,99.90
2019-05-11T06:13:56.041Z,99.90
2019-05-11T06:16:45.694Z,99.90
2019-05-11T06:19:38.349Z,99.90
2019-05-11T06:22:28.743Z,99.90
2019-05-11T06:25:19.366Z,99.90
2019-05-11T06:28:09.291Z,99.90
2019-05-11T06:30:59.418Z,99.90
2019-05-11T06:33:49.041Z,99.90
2019-05-11T06:36:44.617Z,99.90
2019-05-11T06:39:36.531Z,99.90
2019-05-11T06:42:25.698Z,99.90
2019-05-11T06:45:15.085Z,99.90
2019-05-11T06:48:04.681Z,99.90
2019-05-11T06:50:54.411Z,99.90
2019-05-11T06:53:44.428Z,99.90
2019-05-11T06:56:34.579Z,99.90
2019-05-11T06:59:24.939Z,99.90
2019-05-11T07:02:15.412Z,99.90
2019-05-11T07:05:05.733Z,99.90
2019-05-11T07:07:55.838Z,99.90
2019-05-11T07:10:46.347Z,99.90
2019-05-11T07:13:36.458Z,99.90
2019-05-11T07:16:27.356Z,99.90
2019-05-11T07:19:18.742Z,99.90
2019-05-11T07:22:09.090Z,99.90
2019-05-11T07:24:58.628Z,99.90
2019-05-11T07:27:47.913Z,99.90
2019-05-11T07:30:37.587Z,99.90
2019-05-11T07:33:28.672Z,99.90
2019-05-11T07:36:18.314Z,99.90
2019-05-11T07:39:13.415Z,99.90
2019-05-11T07:42:03.204Z,99.90
2019-05-11T07:44:53.589Z,99.90
2019-05-11T07:47:43.482Z,99.90
2019-05-11T07:50:32.522Z,99.90
2019-05-11T07:53:22.119Z,99.90
2019-05-11T07:56:12.239Z,99.90
2019-05-11T07:59:02.177Z,99.90
2019-05-11T08:01:51.783Z,99.90
2019-05-11T08:04:42.287Z,99.90
2019-05-11T08:07:31.564Z,99.90
2019-05-11T08:10:21.126Z,99.90
2019-05-11T08:13:10.422Z,99.90
2019-05-11T08:15:59.863Z,99.90
2019-05-11T08:18:48.911Z,99.90
2019-05-11T08:21:38.989Z,99.90
2019-05-11T08:24:29.583Z,99.90
2019-05-11T08:27:19.248Z,99.90
2019-05-11T08:30:10.684Z,99.90
2019-05-11T08:33:01.143Z,99.90
2019-05-11T08:35:49.856Z,99.90
2019-05-11T08:38:39.738Z,99.90
2019-05-11T08:41:29.531Z,99.90
2019-05-11T08:44:18.940Z,99.90
2019-05-11T08:47:15.030Z,99.90
2019-05-11T08:50:05.046Z,99.90
2019-05-11T08:52:54.634Z,99.90
2019-05-11T08:55:43.970Z,99.90
2019-05-11T08:58:34.364Z,99.90
2019-05-11T09:01:24.106Z,99.90
2019-05-11T09:04:14.226Z,99.90
2019-05-11T09:07:03.414Z,99.90
2019-05-11T09:09:53.631Z,99.90
2019-05-11T09:12:42.583Z,99.90
2019-05-11T09:15:36.832Z,99.90
2019-05-11T09:18:22.925Z,99.90
2019-05-11T09:21:12.738Z,99.90
2019-05-11T09:24:02.515Z,99.90
2019-05-11T09:26:52.182Z,99.90
2019-05-11T09:29:42.156Z,99.90
2019-05-11T09:32:32.395Z,99.90
2019-05-11T09:35:22.254Z,99.90
2019-05-11T09:38:11.147Z,99.90
2019-05-11T09:41:02.396Z,99.90
2019-05-11T09:43:52.894Z,99.90
2019-05-11T09:46:41.857Z,99.90
2019-05-11T09:49:43.743Z,99.90
2019-05-11T09:52:22.550Z,99.90
2019-05-11T09:55:12.175Z,99.90
2019-05-11T09:58:13.014Z,99.90
2019-05-11T10:01:02.925Z,99.90
2019-05-11T10:03:52.094Z,99.90
2019-05-11T10:06:41.328Z,99.90
2019-05-11T10:09:30.663Z,99.90
2019-05-11T10:12:20.314Z,99.90
2019-05-11T10:15:10.670Z,99.90
2019-05-11T10:18:00.290Z,99.90
2019-05-11T10:20:49.482Z,99.90
2019-05-11T10:23:42.149Z,99.90
2019-05-11T10:26:32.441Z,99.90
2019-05-11T10:29:21.718Z,99.90
2019-05-11T10:32:12.093Z,99.90
2019-05-11T10:35:01.370Z,99.90
2019-05-11T10:37:50.842Z,99.90
2019-05-11T10:40:40.231Z,99.90
2019-05-11T10:43:29.969Z,99.90
2019-05-11T10:46:23.362Z,99.90
2019-05-11T10:49:10.581Z,99.90
2019-05-11T10:51:59.859Z,99.90
2019-05-11T10:54:49.514Z,99.90
2019-05-11T10:57:39.607Z,99.90
2019-05-11T11:00:29.118Z,99.90
2019-05-11T11:03:18.839Z,99.90
2019-05-11T11:06:08.564Z,99.90
2019-05-11T11:08:58.106Z,99.90
2019-05-11T11:11:48.811Z,99.90
2019-05-11T11:14:38.322Z,99.90
2019-05-11T11:17:28.779Z,99.90
2019-05-11T11:20:19.774Z,99.90
2019-05-11T11:23:09.045Z,99.90
2019-05-11T11:25:58.997Z,99.90
2019-05-11T11:28:48.439Z,99.90
2019-05-11T11:31:38.438Z,99.90
2019-05-11T11:34:28.138Z,99.90
2019-05-11T11:37:17.839Z,99.90
2019-05-11T11:40:08.554Z,99.90
2019-05-11T11:42:59.414Z,99.90
2019-05-11T11:45:50.093Z,99.90
2019-05-11T11:48:39.940Z,99.90
2019-05-11T11:51:37.671Z,99.90
2019-05-11T11:54:28.456Z,99.90
2019-05-11T11:57:18.227Z,99.90
2019-05-11T12:00:09.385Z,99.90
2019-05-11T12:02:59.899Z,99.90
2019-05-11T12:05:49.154Z,99.90
2019-05-11T12:08:38.937Z,99.90
2019-05-11T12:11:28.583Z,99.90
2019-05-11T12:14:18.833Z,99.90
2019-05-11T12:17:11.165Z,99.90
2019-05-11T12:20:00.610Z,99.90
2019-05-11T12:22:50.184Z,99.90
2019-05-11T12:25:40.579Z,99.90
2019-05-11T12:28:38.126Z,98.60
2019-05-11T12:31:32.523Z,96.50
2019-05-11T12:34:20.634Z,95.30
2019-05-11T12:37:09.511Z,95.00
2019-05-11T12:39:59.609Z,94.80
2019-05-11T12:42:49.284Z,95.60
2019-05-11T12:45:39.539Z,95.50
2019-05-11T12:48:30.738Z,95.90
2019-05-11T12:51:20.604Z,94.40
2019-05-11T12:54:10.078Z,94.20
2019-05-11T12:57:00.081Z,93.00
2019-05-11T12:59:49.209Z,91.70
2019-05-11T13:02:39.013Z,91.80
2019-05-11T13:05:30.578Z,91.20
2019-05-11T13:08:20.736Z,91.10
2019-05-11T13:11:10.141Z,90.70
2019-05-11T13:14:00.091Z,90.80
2019-05-11T13:16:49.518Z,90.00
2019-05-11T13:19:39.207Z,90.40
2019-05-11T13:22:29.062Z,90.60
2019-05-11T13:25:18.802Z,91.10
2019-05-11T13:28:08.836Z,91.00
2019-05-11T13:30:59.161Z,91.00
2019-05-11T13:33:49.212Z,90.00
2019-05-11T13:36:39.137Z,90.20
2019-05-11T13:39:35.326Z,89.90
2019-05-11T13:42:27.722Z,89.60
2019-05-11T13:45:33.468Z,89.90
2019-05-11T13:48:34.320Z,90.30
2019-05-11T13:51:29.002Z,90.40
2019-05-11T13:54:26.401Z,89.90
2019-05-11T13:57:18.208Z,89.90
2019-05-11T14:00:09.135Z,90.30
2019-05-11T14:03:01.405Z,90.90
2019-05-11T14:05:50.741Z,90.00
2019-05-11T14:08:40.352Z,89.90
2019-05-11T14:11:30.097Z,90.30
2019-05-11T14:14:20.635Z,90.00
2019-05-11T14:17:18.489Z,90.20
2019-05-11T14:20:08.814Z,90.30
2019-05-11T14:22:59.155Z,90.50
2019-05-11T14:25:48.896Z,90.00
2019-05-11T14:28:39.327Z,89.90
2019-05-11T14:31:29.730Z,89.80
2019-05-11T14:34:19.221Z,89.80
2019-05-11T14:37:08.991Z,88.80
2019-05-11T14:40:01.067Z,87.10
2019-05-11T14:42:51.186Z,87.70
2019-05-11T14:45:40.333Z,87.80
2019-05-11T14:48:30.384Z,87.20
2019-05-11T14:51:19.852Z,88.10
2019-05-11T14:54:08.992Z,88.20
2019-05-11T14:56:58.703Z,88.20
2019-05-11T14:59:49.154Z,89.30
2019-05-11T15:02:48.595Z,90.40
2019-05-11T15:05:37.933Z,91.30
2019-05-11T15:08:29.034Z,91.60
2019-05-11T15:11:19.337Z,91.30
2019-05-11T15:14:15.089Z,91.70
2019-05-11T15:17:04.683Z,92.10
2019-05-11T15:19:54.879Z,92.80
2019-05-11T15:22:44.815Z,93.30
2019-05-11T15:25:34.555Z,93.60
2019-05-11T15:28:24.018Z,93.90
2019-05-11T15:31:13.516Z,94.20
2019-05-11T15:34:03.420Z,94.40
2019-05-11T15:36:52.668Z,94.80
2019-05-11T15:39:43.320Z,95.50
2019-05-11T15:42:32.868Z,95.50
2019-05-11T15:45:22.511Z,95.60
2019-05-11T15:48:11.643Z,96.20
2019-05-11T15:51:08.587Z,96.70
2019-05-11T15:53:58.801Z,97.00
2019-05-11T15:56:49.257Z,96.20
2019-05-11T15:59:38.944Z,95.80
2019-05-11T16:02:28.961Z,95.90
2019-05-11T16:05:18.691Z,95.70
2019-05-11T16:08:08.551Z,95.40
2019-05-11T16:10:58.131Z,95.50
2019-05-11T16:13:48.621Z,95.50
2019-05-11T16:16:39.205Z,95.30
2019-05-11T16:19:28.703Z,95.40
2019-05-11T16:22:21.095Z,95.70
2019-05-11T16:25:10.550Z,95.60
2019-05-11T16:28:04.646Z,95.50
2019-05-11T16:30:55.018Z,95.70
2019-05-11T16:33:44.515Z,95.70
2019-05-11T16:36:33.115Z,95.90
2019-05-11T16:39:23.462Z,96.00
2019-05-11T16:42:13.654Z,96.50
2019-05-11T16:45:03.166Z,96.60
2019-05-11T16:47:52.227Z,97.00
2019-05-11T16:50:42.089Z,96.80
2019-05-11T16:53:31.820Z,96.80
2019-05-11T16:56:21.598Z,96.90
2019-05-11T16:59:11.064Z,96.80
2019-05-11T17:02:00.891Z,96.50
2019-05-11T17:04:51.391Z,96.20
2019-05-11T17:07:40.798Z,96.50
2019-05-11T17:10:30.905Z,96.70
2019-05-11T17:13:26.989Z,96.70
2019-05-11T17:16:17.950Z,96.80
2019-05-11T17:19:09.325Z,96.90
2019-05-11T17:21:58.984Z,97.10
2019-05-11T17:24:48.888Z,97.60
2019-05-11T17:27:44.455Z,98.40
2019-05-11T17:30:34.391Z,98.80
2019-05-11T17:33:24.265Z,99.20
2019-05-11T17:36:13.748Z,99.40
2019-05-11T17:39:02.852Z,99.30
2019-05-11T17:41:52.631Z,99.50
2019-05-11T17:44:44.677Z,99.20
2019-05-11T17:47:34.667Z,99.40
2019-05-11T17:50:24.883Z,99.70
2019-05-11T17:53:13.938Z,99.90
2019-05-11T17:56:10.930Z,99.90
2019-05-11T17:59:00.395Z,99.90
2019-05-11T18:01:52.627Z,99.90
2019-05-11T18:04:43.101Z,99.90
2019-05-11T18:07:38.336Z,99.90
2019-05-11T18:10:28.789Z,99.90
2019-05-11T18:13:18.740Z,99.90
2019-05-11T18:16:08.781Z,99.90
2019-05-11T18:18:58.675Z,99.90
2019-05-11T18:21:48.805Z,99.90
2019-05-11T18:24:38.506Z,99.90
2019-05-11T18:27:27.928Z,99.90
2019-05-11T18:30:19.078Z,99.90
2019-05-11T18:33:08.566Z,99.90
2019-05-11T18:35:58.690Z,99.90
2019-05-11T18:38:48.751Z,99.90
2019-05-11T18:41:39.103Z,99.90
2019-05-11T18:44:29.267Z,99.90
2019-05-11T18:47:21.354Z,99.90
2019-05-11T18:50:11.694Z,99.90
2019-05-11T18:53:01.951Z,99.90
2019-05-11T18:55:51.706Z,99.90
2019-05-11T18:58:41.596Z,99.90
2019-05-11T19:01:32.401Z,99.90
2019-05-11T19:04:23.863Z,99.90
2019-05-11T19:07:16.822Z,99.90
2019-05-11T19:10:04.125Z,99.90
2019-05-11T19:12:53.684Z,99.90
2019-05-11T19:15:43.348Z,99.90
2019-05-11T19:18:32.732Z,99.90
2019-05-11T19:21:21.919Z,99.90
2019-05-11T19:24:11.243Z,99.90
2019-05-11T19:27:00.288Z,99.90
2019-05-11T19:29:50.567Z,99.90
2019-05-11T19:32:40.949Z,99.90
2019-05-11T19:35:31.203Z,99.90
2019-05-11T19:38:22.043Z,99.90
2019-05-11T19:41:11.775Z,99.90
2019-05-11T19:44:01.621Z,99.90
2019-05-11T19:46:51.793Z,99.90
2019-05-11T19:49:40.859Z,99.90
2019-05-11T19:52:30.570Z,99.90
2019-05-11T19:55:21.256Z,99.90
2019-05-11T19:58:11.414Z,99.90
2019-05-11T20:01:01.365Z,99.90
2019-05-11T20:03:54.447Z,99.90
2019-05-11T20:06:44.548Z,99.90
2019-05-11T20:09:34.939Z,99.90
2019-05-11T20:12:24.099Z,99.90
2019-05-11T20:15:13.005Z,99.90
2019-05-11T20:18:02.599Z,99.90
2019-05-11T20:20:51.730Z,99.90
2019-05-11T20:23:40.684Z,99.90
2019-05-11T20:26:30.296Z,99.90
2019-05-11T20:29:21.257Z,99.90
2019-05-11T20:32:11.963Z,99.90
2019-05-11T20:35:00.939Z,99.90
2019-05-11T20:37:51.863Z,99.90
2019-05-11T20:40:41.946Z,99.90
2019-05-11T20:43:32.135Z,99.90
2019-05-11T20:46:21.888Z,99.90
2019-05-11T20:49:11.756Z,99.90
2019-05-11T20:52:00.348Z,99.90
2019-05-11T20:54:49.588Z,99.90
2019-05-11T20:57:40.227Z,99.90
2019-05-11T21:00:29.856Z,99.90
2019-05-11T21:03:19.494Z,99.90
2019-05-11T21:06:09.487Z,99.90
2019-05-11T21:09:00.042Z,99.90
2019-05-11T21:11:49.632Z,99.90
2019-05-11T21:14:39.779Z,99.90
2019-05-11T21:17:28.759Z,99.90
2019-05-11T21:20:19.311Z,99.90
2019-05-11T21:23:08.975Z,99.90
2019-05-11T21:25:59.883Z,99.90
2019-05-11T21:28:49.753Z,99.90
2019-05-11T21:31:40.798Z,99.90
2019-05-11T21:34:31.604Z,99.90
2019-05-11T21:37:20.751Z,99.90
2019-05-11T21:40:11.037Z,99.90
2019-05-11T21:42:59.920Z,99.90
2019-05-11T21:45:48.913Z,99.90
2019-05-11T21:48:38.631Z,99.90
2019-05-11T21:51:28.842Z,99.90
2019-05-11T21:54:18.891Z,99.90
2019-05-11T21:57:13.690Z,99.90
2019-05-11T22:00:03.594Z,99.90
2019-05-11T22:02:55.535Z,99.90
2019-05-11T22:05:45.337Z,99.90
2019-05-11T22:08:34.860Z,99.90
2019-05-11T22:11:23.771Z,99.90
2019-05-11T22:14:12.769Z,99.90
2019-05-11T22:17:02.734Z,99.90
2019-05-11T22:19:52.128Z,99.90
2019-05-11T22:22:41.970Z,99.90
2019-05-11T22:25:31.608Z,99.90
2019-05-11T22:28:20.438Z,99.90
2019-05-11T22:31:10.544Z,99.90
2019-05-11T22:34:00.487Z,99.90
2019-05-11T22:36:49.859Z,99.90
2019-05-11T22:39:40.092Z,99.90
2019-05-11T22:42:30.070Z,99.90
2019-05-11T22:45:19.109Z,99.90
2019-05-11T22:48:08.926Z,99.90
2019-05-11T22:50:58.741Z,99.90
2019-05-11T22:53:50.390Z,99.90
2019-05-11T22:56:38.991Z,99.90
2019-05-11T22:59:28.979Z,99.90
2019-05-11T23:02:19.599Z,99.90
2019-05-11T23:05:10.695Z,99.90
2019-05-11T23:08:00.280Z,99.90
2019-05-11T23:10:49.287Z,99.90
2019-05-11T23:13:38.818Z,99.90
2019-05-11T23:16:28.534Z,99.90
2019-05-11T23:19:18.226Z,99.90
2019-05-11T23:22:08.329Z,99.90
2019-05-11T23:24:58.872Z,99.90
2019-05-11T23:27:48.966Z,99.90
2019-05-11T23:30:39.154Z,99.90
2019-05-11T23:33:28.458Z,99.90
2019-05-11T23:36:18.235Z,99.90
2019-05-11T23:39:09.209Z,99.90
2019-05-11T23:41:58.947Z,99.90
2019-05-11T23:44:48.716Z,99.90
2019-05-11T23:47:39.336Z,99.90
2019-05-11T23:50:30.192Z,99.90
2019-05-11T23:53:19.659Z,99.90
2019-05-11T23:56:14.648Z,99.90
2019-05-11T23:59:04.240Z,99.90
